sensor_id;sensor_type;location;lat;lon;timestamp;temperature;humidity
12152;DHT22;6139;51.274;7.128;2023-05-07T00:00:11;15.00;99.90
12152;DHT22;6139;51.274;7.128;2023-05-07T00:01:16;15.10;99.90
12152;DHT22;6139;51.274;7.128;2023-05-07T00:02:17;15.00;99.90
12152;DHT22;6139;51.274;7.128;2023-05-07T00:03:18;15.00;99.90
12152;DHT22;6139;51.274;7.128;2023-05-07T00:04:20;15.10;90.20
12152;DHT22;6139;51.274;7.128;2023-05-07T00:05:21;15.10;91.80
12152;DHT22;6139;51.274;7.128;2023-05-07T00:06:23;15.10;83.70
12152;DHT22;6139;51.274;7.128;2023-05-07T00:07:24;15.10;66.20
12152;DHT22;6139;51.274;7.128;2023-05-07T00:08:26;15.10;61.30
12152;DHT22;6139;51.274;7.128;2023-05-07T00:09:27;15.10;69.20
12152;DHT22;6139;51.274;7.128;2023-05-07T00:10:29;15.10;70.50
12152;DHT22;6139;51.274;7.128;2023-05-07T00:11:30;15.10;59.00
12152;DHT22;6139;51.274;7.128;2023-05-07T00:12:32;15.10;53.00
12152;DHT22;6139;51.274;7.128;2023-05-07T00:13:35;15.10;58.20
12152;DHT22;6139;51.274;7.128;2023-05-07T00:14:37;15.10;50.50
12152;DHT22;6139;51.274;7.128;2023-05-07T00:15:38;15.10;52.70
12152;DHT22;6139;51.274;7.128;2023-05-07T00:16:40;15.20;39.80
12152;DHT22;6139;51.274;7.128;2023-05-07T00:17:41;15.10;50.80
12152;DHT22;6139;51.274;7.128;2023-05-07T00:18:43;15.10;57.40
12152;DHT22;6139;51.274;7.128;2023-05-07T00:19:44;15.20;45.90
12152;DHT22;6139;51.274;7.128;2023-05-07T00:20:47;15.20;42.70
12152;DHT22;6139;51.274;7.128;2023-05-07T00:21:48;15.10;51.50
12152;DHT22;6139;51.274;7.128;2023-05-07T00:22:50;15.10;61.70
12152;DHT22;6139;51.274;7.128;2023-05-07T00:23:51;15.10;52.70
12152;DHT22;6139;51.274;7.128;2023-05-07T00:24:53;15.00;62.00
12152;DHT22;6139;51.274;7.128;2023-05-07T00:25:54;15.10;56.70
12152;DHT22;6139;51.274;7.128;2023-05-07T00:26:55;15.00;63.80
12152;DHT22;6139;51.274;7.128;2023-05-07T00:27:58;15.00;59.20
12152;DHT22;6139;51.274;7.128;2023-05-07T00:29:05;15.00;82.90
12152;DHT22;6139;51.274;7.128;2023-05-07T00:30:07;15.00;75.30
12152;DHT22;6139;51.274;7.128;2023-05-07T00:31:10;15.00;87.60
12152;DHT22;6139;51.274;7.128;2023-05-07T00:32:11;15.00;87.30
12152;DHT22;6139;51.274;7.128;2023-05-07T00:33:13;14.90;89.30
12152;DHT22;6139;51.274;7.128;2023-05-07T00:34:14;14.90;90.50
12152;DHT22;6139;51.274;7.128;2023-05-07T00:35:16;14.90;90.80
12152;DHT22;6139;51.274;7.128;2023-05-07T00:36:16;14.90;96.70
12152;DHT22;6139;51.274;7.128;2023-05-07T00:37:18;14.90;91.60
12152;DHT22;6139;51.274;7.128;2023-05-07T00:38:19;14.90;94.30
12152;DHT22;6139;51.274;7.128;2023-05-07T00:39:21;14.90;76.00
12152;DHT22;6139;51.274;7.128;2023-05-07T00:40:22;15.00;74.20
12152;DHT22;6139;51.274;7.128;2023-05-07T00:41:24;15.00;63.70
12152;DHT22;6139;51.274;7.128;2023-05-07T00:42:26;15.00;76.40
12152;DHT22;6139;51.274;7.128;2023-05-07T00:43:28;15.00;52.30
12152;DHT22;6139;51.274;7.128;2023-05-07T00:44:30;15.00;70.40
12152;DHT22;6139;51.274;7.128;2023-05-07T00:45:33;15.00;46.80
12152;DHT22;6139;51.274;7.128;2023-05-07T00:46:34;15.00;46.40
12152;DHT22;6139;51.274;7.128;2023-05-07T00:47:36;15.00;40.20
12152;DHT22;6139;51.274;7.128;2023-05-07T00:48:37;15.00;47.80
12152;DHT22;6139;51.274;7.128;2023-05-07T00:49:42;15.00;40.60
12152;DHT22;6139;51.274;7.128;2023-05-07T00:50:43;15.00;41.50
12152;DHT22;6139;51.274;7.128;2023-05-07T00:51:46;14.90;35.30
12152;DHT22;6139;51.274;7.128;2023-05-07T00:52:47;14.90;24.20
12152;DHT22;6139;51.274;7.128;2023-05-07T00:53:50;14.90;34.30
12152;DHT22;6139;51.274;7.128;2023-05-07T00:54:51;14.90;27.40
12152;DHT22;6139;51.274;7.128;2023-05-07T00:55:53;14.90;24.80
12152;DHT22;6139;51.274;7.128;2023-05-07T00:56:55;14.90;28.20
12152;DHT22;6139;51.274;7.128;2023-05-07T00:57:56;14.90;27.60
12152;DHT22;6139;51.274;7.128;2023-05-07T00:58:57;14.90;21.40
12152;DHT22;6139;51.274;7.128;2023-05-07T01:00:01;14.90;14.20
12152;DHT22;6139;51.274;7.128;2023-05-07T01:01:02;14.90;25.10
12152;DHT22;6139;51.274;7.128;2023-05-07T01:02:04;14.90;17.80
12152;DHT22;6139;51.274;7.128;2023-05-07T01:03:05;14.90;13.60
12152;DHT22;6139;51.274;7.128;2023-05-07T01:04:07;14.90;13.40
12152;DHT22;6139;51.274;7.128;2023-05-07T01:05:10;14.90;7.50
12152;DHT22;6139;51.274;7.128;2023-05-07T01:06:13;15.00;1.00
12152;DHT22;6139;51.274;7.128;2023-05-07T01:07:17;15.00;1.00
12152;DHT22;6139;51.274;7.128;2023-05-07T01:08:20;15.00;1.00
12152;DHT22;6139;51.274;7.128;2023-05-07T01:09:21;15.00;1.00
12152;DHT22;6139;51.274;7.128;2023-05-07T01:10:24;15.00;1.00
12152;DHT22;6139;51.274;7.128;2023-05-07T01:11:26;15.00;1.00
12152;DHT22;6139;51.274;7.128;2023-05-07T01:12:28;15.00;1.00
12152;DHT22;6139;51.274;7.128;2023-05-07T01:13:30;15.00;1.00
12152;DHT22;6139;51.274;7.128;2023-05-07T01:14:33;14.90;1.00
12152;DHT22;6139;51.274;7.128;2023-05-07T01:15:36;15.00;1.00
12152;DHT22;6139;51.274;7.128;2023-05-07T01:16:39;15.00;1.00
12152;DHT22;6139;51.274;7.128;2023-05-07T01:17:42;15.00;1.00
12152;DHT22;6139;51.274;7.128;2023-05-07T01:18:52;14.90;1.00
12152;DHT22;6139;51.274;7.128;2023-05-07T01:19:53;14.90;1.00
12152;DHT22;6139;51.274;7.128;2023-05-07T01:20:56;14.90;1.00
12152;DHT22;6139;51.274;7.128;2023-05-07T01:22:09;14.90;1.00
12152;DHT22;6139;51.274;7.128;2023-05-07T01:23:25;14.90;1.00
12152;DHT22;6139;51.274;7.128;2023-05-07T01:24:28;14.90;1.00
12152;DHT22;6139;51.274;7.128;2023-05-07T01:25:31;14.90;1.00
12152;DHT22;6139;51.274;7.128;2023-05-07T01:26:34;14.90;1.00
12152;DHT22;6139;51.274;7.128;2023-05-07T01:27:36;14.90;1.00
12152;DHT22;6139;51.274;7.128;2023-05-07T01:28:38;14.90;1.00
12152;DHT22;6139;51.274;7.128;2023-05-07T01:29:40;14.90;1.00
12152;DHT22;6139;51.274;7.128;2023-05-07T01:30:42;14.90;1.00
12152;DHT22;6139;51.274;7.128;2023-05-07T01:31:47;14.90;1.00
12152;DHT22;6139;51.274;7.128;2023-05-07T01:32:53;14.90;1.00
12152;DHT22;6139;51.274;7.128;2023-05-07T01:33:58;14.90;1.00
12152;DHT22;6139;51.274;7.128;2023-05-07T01:35:01;14.90;1.00
12152;DHT22;6139;51.274;7.128;2023-05-07T01:36:06;15.00;1.00
12152;DHT22;6139;51.274;7.128;2023-05-07T01:37:08;14.90;1.00
12152;DHT22;6139;51.274;7.128;2023-05-07T01:38:10;15.00;1.00
12152;DHT22;6139;51.274;7.128;2023-05-07T01:39:13;15.00;1.00
12152;DHT22;6139;51.274;7.128;2023-05-07T01:40:15;15.00;1.00
12152;DHT22;6139;51.274;7.128;2023-05-07T01:41:17;15.00;1.00
12152;DHT22;6139;51.274;7.128;2023-05-07T01:42:19;15.00;1.00
12152;DHT22;6139;51.274;7.128;2023-05-07T01:43:20;15.00;1.00
12152;DHT22;6139;51.274;7.128;2023-05-07T01:44:22;15.00;1.00
12152;DHT22;6139;51.274;7.128;2023-05-07T01:45:25;14.90;1.00
12152;DHT22;6139;51.274;7.128;2023-05-07T01:46:27;14.90;1.00
12152;DHT22;6139;51.274;7.128;2023-05-07T01:47:29;14.90;1.00
12152;DHT22;6139;51.274;7.128;2023-05-07T01:48:32;14.90;1.00
12152;DHT22;6139;51.274;7.128;2023-05-07T01:49:33;14.90;1.00
12152;DHT22;6139;51.274;7.128;2023-05-07T01:50:36;14.90;1.00
12152;DHT22;6139;51.274;7.128;2023-05-07T01:51:37;14.80;1.00
12152;DHT22;6139;51.274;7.128;2023-05-07T01:52:41;14.90;1.00
12152;DHT22;6139;51.274;7.128;2023-05-07T01:53:42;14.80;1.00
12152;DHT22;6139;51.274;7.128;2023-05-07T01:54:46;14.80;1.00
12152;DHT22;6139;51.274;7.128;2023-05-07T01:55:47;14.80;1.00
12152;DHT22;6139;51.274;7.128;2023-05-07T01:56:50;14.80;1.00
12152;DHT22;6139;51.274;7.128;2023-05-07T01:57:51;14.80;1.00
12152;DHT22;6139;51.274;7.128;2023-05-07T01:58:53;14.80;1.00
12152;DHT22;6139;51.274;7.128;2023-05-07T01:59:54;14.80;1.00
12152;DHT22;6139;51.274;7.128;2023-05-07T02:00:56;14.80;1.00
12152;DHT22;6139;51.274;7.128;2023-05-07T02:01:57;14.80;1.00
12152;DHT22;6139;51.274;7.128;2023-05-07T02:02:59;14.90;1.00
12152;DHT22;6139;51.274;7.128;2023-05-07T02:04:09;14.80;1.00
12152;DHT22;6139;51.274;7.128;2023-05-07T02:05:11;14.80;1.00
12152;DHT22;6139;51.274;7.128;2023-05-07T02:06:13;14.80;1.00
12152;DHT22;6139;51.274;7.128;2023-05-07T02:07:15;14.80;1.00
12152;DHT22;6139;51.274;7.128;2023-05-07T02:08:17;14.80;1.00
12152;DHT22;6139;51.274;7.128;2023-05-07T02:09:19;14.80;1.00
12152;DHT22;6139;51.274;7.128;2023-05-07T02:10:24;14.80;1.00
12152;DHT22;6139;51.274;7.128;2023-05-07T02:11:26;14.80;1.00
12152;DHT22;6139;51.274;7.128;2023-05-07T02:12:27;14.70;1.00
12152;DHT22;6139;51.274;7.128;2023-05-07T02:13:31;14.80;1.00
12152;DHT22;6139;51.274;7.128;2023-05-07T02:14:32;14.80;1.00
12152;DHT22;6139;51.274;7.128;2023-05-07T02:15:34;14.80;1.00
12152;DHT22;6139;51.274;7.128;2023-05-07T02:16:36;14.80;1.00
12152;DHT22;6139;51.274;7.128;2023-05-07T02:17:57;14.80;1.00
12152;DHT22;6139;51.274;7.128;2023-05-07T02:18:58;14.80;1.00
12152;DHT22;6139;51.274;7.128;2023-05-07T02:20:01;14.80;1.00
12152;DHT22;6139;51.274;7.128;2023-05-07T02:21:03;14.80;1.00
12152;DHT22;6139;51.274;7.128;2023-05-07T02:22:06;14.80;1.00
12152;DHT22;6139;51.274;7.128;2023-05-07T02:23:07;14.80;1.00
12152;DHT22;6139;51.274;7.128;2023-05-07T02:24:09;14.80;1.00
12152;DHT22;6139;51.274;7.128;2023-05-07T02:25:10;14.80;1.00
12152;DHT22;6139;51.274;7.128;2023-05-07T02:26:13;14.70;1.00
12152;DHT22;6139;51.274;7.128;2023-05-07T02:27:15;14.80;1.00
12152;DHT22;6139;51.274;7.128;2023-05-07T02:28:18;14.70;1.00
12152;DHT22;6139;51.274;7.128;2023-05-07T02:29:24;14.70;1.00
12152;DHT22;6139;51.274;7.128;2023-05-07T02:30:28;14.70;1.00
12152;DHT22;6139;51.274;7.128;2023-05-07T02:31:31;14.70;1.00
12152;DHT22;6139;51.274;7.128;2023-05-07T02:32:34;14.70;1.00
12152;DHT22;6139;51.274;7.128;2023-05-07T02:33:35;14.70;1.00
12152;DHT22;6139;51.274;7.128;2023-05-07T02:34:40;14.70;1.00
12152;DHT22;6139;51.274;7.128;2023-05-07T02:35:41;14.70;1.00
12152;DHT22;6139;51.274;7.128;2023-05-07T02:36:44;14.70;1.00
12152;DHT22;6139;51.274;7.128;2023-05-07T02:37:47;14.70;1.00
12152;DHT22;6139;51.274;7.128;2023-05-07T02:38:50;14.70;1.00
12152;DHT22;6139;51.274;7.128;2023-05-07T02:39:51;14.70;1.00
12152;DHT22;6139;51.274;7.128;2023-05-07T02:40:53;14.70;1.00
12152;DHT22;6139;51.274;7.128;2023-05-07T02:41:55;14.60;1.00
12152;DHT22;6139;51.274;7.128;2023-05-07T02:42:57;14.60;1.00
12152;DHT22;6139;51.274;7.128;2023-05-07T02:43:58;14.60;1.00
12152;DHT22;6139;51.274;7.128;2023-05-07T02:45:00;14.60;1.00
12152;DHT22;6139;51.274;7.128;2023-05-07T02:46:02;14.60;1.00
12152;DHT22;6139;51.274;7.128;2023-05-07T02:47:05;14.60;1.00
12152;DHT22;6139;51.274;7.128;2023-05-07T02:48:09;14.60;1.00
12152;DHT22;6139;51.274;7.128;2023-05-07T02:49:11;14.60;1.00
12152;DHT22;6139;51.274;7.128;2023-05-07T02:50:12;14.60;1.00
12152;DHT22;6139;51.274;7.128;2023-05-07T02:51:14;14.50;1.00
12152;DHT22;6139;51.274;7.128;2023-05-07T02:52:17;14.50;1.00
12152;DHT22;6139;51.274;7.128;2023-05-07T02:53:18;14.50;1.00
12152;DHT22;6139;51.274;7.128;2023-05-07T02:54:20;14.50;1.00
12152;DHT22;6139;51.274;7.128;2023-05-07T02:55:22;14.50;1.00
12152;DHT22;6139;51.274;7.128;2023-05-07T02:56:26;14.50;1.00
12152;DHT22;6139;51.274;7.128;2023-05-07T02:57:29;14.40;1.00
12152;DHT22;6139;51.274;7.128;2023-05-07T02:58:30;14.40;1.00
12152;DHT22;6139;51.274;7.128;2023-05-07T02:59:33;14.40;1.00
12152;DHT22;6139;51.274;7.128;2023-05-07T03:00:35;14.40;1.00
12152;DHT22;6139;51.274;7.128;2023-05-07T03:01:56;14.40;1.90
12152;DHT22;6139;51.274;7.128;2023-05-07T03:02:57;14.40;1.00
12152;DHT22;6139;51.274;7.128;2023-05-07T03:03:59;14.40;1.00
12152;DHT22;6139;51.274;7.128;2023-05-07T03:05:00;14.40;1.00
12152;DHT22;6139;51.274;7.128;2023-05-07T03:06:02;14.40;1.00
12152;DHT22;6139;51.274;7.128;2023-05-07T03:07:04;14.40;2.20
12152;DHT22;6139;51.274;7.128;2023-05-07T03:08:06;14.40;1.00
12152;DHT22;6139;51.274;7.128;2023-05-07T03:09:07;14.40;1.00
12152;DHT22;6139;51.274;7.128;2023-05-07T03:10:09;14.40;1.00
12152;DHT22;6139;51.274;7.128;2023-05-07T03:11:10;14.40;1.00
12152;DHT22;6139;51.274;7.128;2023-05-07T03:12:12;14.40;1.00
12152;DHT22;6139;51.274;7.128;2023-05-07T03:13:15;14.40;1.00
12152;DHT22;6139;51.274;7.128;2023-05-07T03:14:16;14.40;1.00
12152;DHT22;6139;51.274;7.128;2023-05-07T03:15:18;14.40;1.00
12152;DHT22;6139;51.274;7.128;2023-05-07T03:16:20;14.40;1.00
12152;DHT22;6139;51.274;7.128;2023-05-07T03:17:21;14.40;1.00
12152;DHT22;6139;51.274;7.128;2023-05-07T03:18:23;14.40;1.00
12152;DHT22;6139;51.274;7.128;2023-05-07T03:19:24;14.40;1.00
12152;DHT22;6139;51.274;7.128;2023-05-07T03:20:26;14.40;1.00
12152;DHT22;6139;51.274;7.128;2023-05-07T03:21:28;14.40;1.00
12152;DHT22;6139;51.274;7.128;2023-05-07T03:22:30;14.40;1.00
12152;DHT22;6139;51.274;7.128;2023-05-07T03:23:31;14.40;1.00
12152;DHT22;6139;51.274;7.128;2023-05-07T03:24:33;14.40;1.00
12152;DHT22;6139;51.274;7.128;2023-05-07T03:25:34;14.40;1.00
12152;DHT22;6139;51.274;7.128;2023-05-07T03:26:36;14.40;1.00
12152;DHT22;6139;51.274;7.128;2023-05-07T03:27:37;14.40;1.00
12152;DHT22;6139;51.274;7.128;2023-05-07T03:28:41;14.40;1.00
12152;DHT22;6139;51.274;7.128;2023-05-07T03:29:45;14.40;1.00
12152;DHT22;6139;51.274;7.128;2023-05-07T03:30:47;14.40;1.00
12152;DHT22;6139;51.274;7.128;2023-05-07T03:31:48;14.40;1.00
12152;DHT22;6139;51.274;7.128;2023-05-07T03:32:50;14.40;1.00
12152;DHT22;6139;51.274;7.128;2023-05-07T03:33:52;14.40;1.00
12152;DHT22;6139;51.274;7.128;2023-05-07T03:34:54;14.40;1.00
12152;DHT22;6139;51.274;7.128;2023-05-07T03:35:56;14.40;1.00
12152;DHT22;6139;51.274;7.128;2023-05-07T03:37:00;14.40;1.00
12152;DHT22;6139;51.274;7.128;2023-05-07T03:38:02;14.40;1.00
12152;DHT22;6139;51.274;7.128;2023-05-07T03:39:06;14.40;1.00
12152;DHT22;6139;51.274;7.128;2023-05-07T03:40:13;14.40;1.00
12152;DHT22;6139;51.274;7.128;2023-05-07T03:41:23;14.40;1.00
12152;DHT22;6139;51.274;7.128;2023-05-07T03:42:26;14.40;1.00
12152;DHT22;6139;51.274;7.128;2023-05-07T03:43:27;14.50;1.00
12152;DHT22;6139;51.274;7.128;2023-05-07T03:44:37;14.50;1.00
12152;DHT22;6139;51.274;7.128;2023-05-07T03:45:38;14.50;1.00
12152;DHT22;6139;51.274;7.128;2023-05-07T03:46:48;14.40;1.00
12152;DHT22;6139;51.274;7.128;2023-05-07T03:47:50;14.40;1.00
12152;DHT22;6139;51.274;7.128;2023-05-07T03:48:54;14.40;1.00
12152;DHT22;6139;51.274;7.128;2023-05-07T03:49:55;14.40;1.00
12152;DHT22;6139;51.274;7.128;2023-05-07T03:50:59;14.40;1.00
12152;DHT22;6139;51.274;7.128;2023-05-07T03:52:04;14.40;1.00
12152;DHT22;6139;51.274;7.128;2023-05-07T03:53:06;14.40;1.00
12152;DHT22;6139;51.274;7.128;2023-05-07T03:54:12;14.40;1.00
12152;DHT22;6139;51.274;7.128;2023-05-07T03:55:18;14.40;1.00
12152;DHT22;6139;51.274;7.128;2023-05-07T03:56:24;14.30;1.00
12152;DHT22;6139;51.274;7.128;2023-05-07T03:57:29;14.30;1.00
12152;DHT22;6139;51.274;7.128;2023-05-07T03:58:30;14.30;1.00
12152;DHT22;6139;51.274;7.128;2023-05-07T03:59:37;14.30;1.00
12152;DHT22;6139;51.274;7.128;2023-05-07T04:00:38;14.30;1.00
12152;DHT22;6139;51.274;7.128;2023-05-07T04:01:52;14.30;1.00
12152;DHT22;6139;51.274;7.128;2023-05-07T04:02:56;14.30;1.00
12152;DHT22;6139;51.274;7.128;2023-05-07T04:04:00;14.30;1.00
12152;DHT22;6139;51.274;7.128;2023-05-07T04:05:02;14.20;1.00
12152;DHT22;6139;51.274;7.128;2023-05-07T04:06:04;14.20;1.00
12152;DHT22;6139;51.274;7.128;2023-05-07T04:07:07;14.30;1.00
12152;DHT22;6139;51.274;7.128;2023-05-07T04:08:14;14.20;1.00
12152;DHT22;6139;51.274;7.128;2023-05-07T04:09:20;14.20;1.00
12152;DHT22;6139;51.274;7.128;2023-05-07T04:10:22;14.20;1.00
12152;DHT22;6139;51.274;7.128;2023-05-07T04:11:26;14.20;1.00
12152;DHT22;6139;51.274;7.128;2023-05-07T04:12:28;14.20;1.00
12152;DHT22;6139;51.274;7.128;2023-05-07T04:13:30;14.10;1.00
12152;DHT22;6139;51.274;7.128;2023-05-07T04:14:33;14.10;1.00
12152;DHT22;6139;51.274;7.128;2023-05-07T04:15:37;14.10;1.00
12152;DHT22;6139;51.274;7.128;2023-05-07T04:16:42;14.10;1.00
12152;DHT22;6139;51.274;7.128;2023-05-07T04:17:43;14.10;1.00
12152;DHT22;6139;51.274;7.128;2023-05-07T04:18:47;14.20;1.00
12152;DHT22;6139;51.274;7.128;2023-05-07T04:19:48;14.20;1.00
12152;DHT22;6139;51.274;7.128;2023-05-07T04:20:51;14.20;1.00
12152;DHT22;6139;51.274;7.128;2023-05-07T04:21:52;14.20;1.00
12152;DHT22;6139;51.274;7.128;2023-05-07T04:22:53;14.20;1.00
12152;DHT22;6139;51.274;7.128;2023-05-07T04:23:56;14.20;1.00
12152;DHT22;6139;51.274;7.128;2023-05-07T04:24:57;14.20;1.00
12152;DHT22;6139;51.274;7.128;2023-05-07T04:25:59;14.20;1.00
12152;DHT22;6139;51.274;7.128;2023-05-07T04:27:08;14.20;1.00
12152;DHT22;6139;51.274;7.128;2023-05-07T04:28:08;14.20;1.00
12152;DHT22;6139;51.274;7.128;2023-05-07T04:29:11;14.20;1.00
12152;DHT22;6139;51.274;7.128;2023-05-07T04:30:13;14.20;1.00
12152;DHT22;6139;51.274;7.128;2023-05-07T04:31:16;14.20;1.00
12152;DHT22;6139;51.274;7.128;2023-05-07T04:32:18;14.20;1.00
12152;DHT22;6139;51.274;7.128;2023-05-07T04:33:20;14.20;1.00
12152;DHT22;6139;51.274;7.128;2023-05-07T04:34:23;14.20;1.00
12152;DHT22;6139;51.274;7.128;2023-05-07T04:35:25;14.20;1.00
12152;DHT22;6139;51.274;7.128;2023-05-07T04:36:26;14.20;1.00
12152;DHT22;6139;51.274;7.128;2023-05-07T04:37:36;14.20;1.00
12152;DHT22;6139;51.274;7.128;2023-05-07T04:38:37;14.20;1.00
12152;DHT22;6139;51.274;7.128;2023-05-07T04:39:40;14.30;1.00
12152;DHT22;6139;51.274;7.128;2023-05-07T04:40:41;14.30;1.00
12152;DHT22;6139;51.274;7.128;2023-05-07T04:41:46;14.30;1.00
12152;DHT22;6139;51.274;7.128;2023-05-07T04:42:47;14.30;1.00
12152;DHT22;6139;51.274;7.128;2023-05-07T04:43:49;14.30;1.00
12152;DHT22;6139;51.274;7.128;2023-05-07T04:44:53;14.30;1.00
12152;DHT22;6139;51.274;7.128;2023-05-07T04:45:56;14.30;1.00
12152;DHT22;6139;51.274;7.128;2023-05-07T04:47:01;14.30;1.00
12152;DHT22;6139;51.274;7.128;2023-05-07T04:48:03;14.30;1.00
12152;DHT22;6139;51.274;7.128;2023-05-07T04:49:06;14.40;1.00
12152;DHT22;6139;51.274;7.128;2023-05-07T04:50:09;14.40;1.00
12152;DHT22;6139;51.274;7.128;2023-05-07T04:51:12;14.40;1.00
12152;DHT22;6139;51.274;7.128;2023-05-07T04:52:14;14.40;1.00
12152;DHT22;6139;51.274;7.128;2023-05-07T04:53:16;14.40;1.00
12152;DHT22;6139;51.274;7.128;2023-05-07T04:54:18;14.40;1.00
12152;DHT22;6139;51.274;7.128;2023-05-07T04:55:19;14.40;1.00
12152;DHT22;6139;51.274;7.128;2023-05-07T04:56:21;14.40;1.00
12152;DHT22;6139;51.274;7.128;2023-05-07T04:57:22;14.40;1.00
12152;DHT22;6139;51.274;7.128;2023-05-07T04:58:24;14.40;1.00
12152;DHT22;6139;51.274;7.128;2023-05-07T04:59:25;14.40;1.00
12152;DHT22;6139;51.274;7.128;2023-05-07T05:00:27;14.40;1.00
12152;DHT22;6139;51.274;7.128;2023-05-07T05:01:29;14.40;1.00
12152;DHT22;6139;51.274;7.128;2023-05-07T05:02:33;14.40;1.00
12152;DHT22;6139;51.274;7.128;2023-05-07T05:03:34;14.40;1.00
12152;DHT22;6139;51.274;7.128;2023-05-07T05:04:36;14.40;1.00
12152;DHT22;6139;51.274;7.128;2023-05-07T05:05:38;14.50;1.00
12152;DHT22;6139;51.274;7.128;2023-05-07T05:06:40;14.50;1.00
12152;DHT22;6139;51.274;7.128;2023-05-07T05:07:42;14.50;1.00
12152;DHT22;6139;51.274;7.128;2023-05-07T05:08:44;14.50;1.00
12152;DHT22;6139;51.274;7.128;2023-05-07T05:09:46;14.50;1.00
12152;DHT22;6139;51.274;7.128;2023-05-07T05:10:48;14.60;1.00
12152;DHT22;6139;51.274;7.128;2023-05-07T05:11:50;14.60;1.00
12152;DHT22;6139;51.274;7.128;2023-05-07T05:12:51;14.60;1.00
12152;DHT22;6139;51.274;7.128;2023-05-07T05:13:54;14.70;1.00
12152;DHT22;6139;51.274;7.128;2023-05-07T05:14:56;14.60;1.00
12152;DHT22;6139;51.274;7.128;2023-05-07T05:15:57;14.70;1.00
12152;DHT22;6139;51.274;7.128;2023-05-07T05:17:01;14.60;1.00
12152;DHT22;6139;51.274;7.128;2023-05-07T05:18:03;14.60;1.00
12152;DHT22;6139;51.274;7.128;2023-05-07T05:19:06;14.60;1.00
12152;DHT22;6139;51.274;7.128;2023-05-07T05:20:11;14.60;1.00
12152;DHT22;6139;51.274;7.128;2023-05-07T05:21:13;14.70;1.00
12152;DHT22;6139;51.274;7.128;2023-05-07T05:22:17;14.70;1.00
12152;DHT22;6139;51.274;7.128;2023-05-07T05:23:18;14.70;1.00
12152;DHT22;6139;51.274;7.128;2023-05-07T05:24:20;14.70;1.00
12152;DHT22;6139;51.274;7.128;2023-05-07T05:25:21;14.70;1.00
12152;DHT22;6139;51.274;7.128;2023-05-07T05:26:23;14.70;1.00
12152;DHT22;6139;51.274;7.128;2023-05-07T05:27:24;14.70;1.00
12152;DHT22;6139;51.274;7.128;2023-05-07T05:28:26;14.60;1.00
12152;DHT22;6139;51.274;7.128;2023-05-07T05:29:28;14.60;1.00
12152;DHT22;6139;51.274;7.128;2023-05-07T05:30:32;14.70;1.00
12152;DHT22;6139;51.274;7.128;2023-05-07T05:31:33;14.70;1.00
12152;DHT22;6139;51.274;7.128;2023-05-07T05:32:35;14.70;1.00
12152;DHT22;6139;51.274;7.128;2023-05-07T05:33:37;14.70;1.00
12152;DHT22;6139;51.274;7.128;2023-05-07T05:34:40;14.70;1.00
12152;DHT22;6139;51.274;7.128;2023-05-07T05:35:41;14.70;1.00
12152;DHT22;6139;51.274;7.128;2023-05-07T05:36:46;14.70;1.00
12152;DHT22;6139;51.274;7.128;2023-05-07T05:37:48;14.70;1.00
12152;DHT22;6139;51.274;7.128;2023-05-07T05:38:52;14.70;1.00
12152;DHT22;6139;51.274;7.128;2023-05-07T05:39:53;14.70;1.00
12152;DHT22;6139;51.274;7.128;2023-05-07T05:40:56;14.70;1.00
12152;DHT22;6139;51.274;7.128;2023-05-07T05:41:57;14.80;1.00
12152;DHT22;6139;51.274;7.128;2023-05-07T05:43:00;14.80;1.00
12152;DHT22;6139;51.274;7.128;2023-05-07T05:44:01;14.80;1.00
12152;DHT22;6139;51.274;7.128;2023-05-07T05:45:03;14.80;1.00
12152;DHT22;6139;51.274;7.128;2023-05-07T05:46:06;14.80;1.00
12152;DHT22;6139;51.274;7.128;2023-05-07T05:47:09;14.80;1.00
12152;DHT22;6139;51.274;7.128;2023-05-07T05:48:10;14.80;1.00
12152;DHT22;6139;51.274;7.128;2023-05-07T05:49:14;14.80;1.00
12152;DHT22;6139;51.274;7.128;2023-05-07T05:50:16;14.80;1.00
12152;DHT22;6139;51.274;7.128;2023-05-07T05:51:18;14.80;1.00
12152;DHT22;6139;51.274;7.128;2023-05-07T05:52:20;14.80;1.00
12152;DHT22;6139;51.274;7.128;2023-05-07T05:53:24;14.80;1.00
12152;DHT22;6139;51.274;7.128;2023-05-07T05:54:25;14.90;1.00
12152;DHT22;6139;51.274;7.128;2023-05-07T05:55:27;14.90;1.00
12152;DHT22;6139;51.274;7.128;2023-05-07T05:56:28;14.90;1.00
12152;DHT22;6139;51.274;7.128;2023-05-07T05:57:30;14.90;1.00
12152;DHT22;6139;51.274;7.128;2023-05-07T05:58:31;14.90;1.00
12152;DHT22;6139;51.274;7.128;2023-05-07T05:59:36;14.90;1.00
12152;DHT22;6139;51.274;7.128;2023-05-07T06:00:37;14.90;1.00
12152;DHT22;6139;51.274;7.128;2023-05-07T06:01:41;14.90;1.00
12152;DHT22;6139;51.274;7.128;2023-05-07T06:02:42;14.90;1.00
12152;DHT22;6139;51.274;7.128;2023-05-07T06:03:44;14.90;1.00
12152;DHT22;6139;51.274;7.128;2023-05-07T06:04:50;14.90;1.00
12152;DHT22;6139;51.274;7.128;2023-05-07T06:05:54;14.90;1.00
12152;DHT22;6139;51.274;7.128;2023-05-07T06:06:56;15.00;1.00
12152;DHT22;6139;51.274;7.128;2023-05-07T06:07:59;15.00;1.00
12152;DHT22;6139;51.274;7.128;2023-05-07T06:09:04;15.10;1.00
12152;DHT22;6139;51.274;7.128;2023-05-07T06:10:12;15.10;1.00
12152;DHT22;6139;51.274;7.128;2023-05-07T06:11:15;15.10;1.00
12152;DHT22;6139;51.274;7.128;2023-05-07T06:12:20;15.20;1.00
12152;DHT22;6139;51.274;7.128;2023-05-07T06:13:22;15.20;1.00
12152;DHT22;6139;51.274;7.128;2023-05-07T06:14:25;15.20;1.00
12152;DHT22;6139;51.274;7.128;2023-05-07T06:15:26;15.20;1.00
12152;DHT22;6139;51.274;7.128;2023-05-07T06:16:29;15.20;1.00
12152;DHT22;6139;51.274;7.128;2023-05-07T06:17:30;15.20;1.00
12152;DHT22;6139;51.274;7.128;2023-05-07T06:18:32;15.20;1.00
12152;DHT22;6139;51.274;7.128;2023-05-07T06:19:33;15.20;1.00
12152;DHT22;6139;51.274;7.128;2023-05-07T06:20:37;15.30;1.00
12152;DHT22;6139;51.274;7.128;2023-05-07T06:21:42;15.30;1.00
12152;DHT22;6139;51.274;7.128;2023-05-07T06:22:44;15.30;1.00
12152;DHT22;6139;51.274;7.128;2023-05-07T06:23:46;15.30;1.00
12152;DHT22;6139;51.274;7.128;2023-05-07T06:24:48;15.30;1.00
12152;DHT22;6139;51.274;7.128;2023-05-07T06:25:50;15.30;1.00
12152;DHT22;6139;51.274;7.128;2023-05-07T06:26:54;15.40;1.00
12152;DHT22;6139;51.274;7.128;2023-05-07T06:27:56;15.40;1.00
12152;DHT22;6139;51.274;7.128;2023-05-07T06:28:59;15.40;1.00
12152;DHT22;6139;51.274;7.128;2023-05-07T06:30:00;15.50;1.00
12152;DHT22;6139;51.274;7.128;2023-05-07T06:31:13;15.50;1.00
12152;DHT22;6139;51.274;7.128;2023-05-07T06:32:15;15.60;1.00
12152;DHT22;6139;51.274;7.128;2023-05-07T06:33:18;15.60;1.00
12152;DHT22;6139;51.274;7.128;2023-05-07T06:34:20;15.60;1.00
12152;DHT22;6139;51.274;7.128;2023-05-07T06:35:22;15.60;1.00
12152;DHT22;6139;51.274;7.128;2023-05-07T06:36:25;15.60;1.00
12152;DHT22;6139;51.274;7.128;2023-05-07T06:37:30;15.60;1.00
12152;DHT22;6139;51.274;7.128;2023-05-07T06:38:38;15.60;1.00
12152;DHT22;6139;51.274;7.128;2023-05-07T06:39:39;15.60;1.00
12152;DHT22;6139;51.274;7.128;2023-05-07T06:40:41;15.60;1.00
12152;DHT22;6139;51.274;7.128;2023-05-07T06:41:42;15.60;1.00
12152;DHT22;6139;51.274;7.128;2023-05-07T06:42:55;15.60;1.00
12152;DHT22;6139;51.274;7.128;2023-05-07T06:44:17;15.60;1.00
12152;DHT22;6139;51.274;7.128;2023-05-07T06:45:22;15.60;1.00
12152;DHT22;6139;51.274;7.128;2023-05-07T06:46:24;15.60;1.00
12152;DHT22;6139;51.274;7.128;2023-05-07T06:47:25;15.60;1.00
12152;DHT22;6139;51.274;7.128;2023-05-07T06:48:29;15.60;1.00